Time;durP1;ratioP1;P1;durP2;ratioP2;P2;SDS_P1;SDS_P2;PMS_P1;PMS_P2;Temp;Humidity;BMP_temperature;BMP_pressure;BME280_temperature;BME280_humidity;BME280_pressure;Samples;Min_cycle;Max_cycle;Signal;HPM_P1;HPM_P2
2023/05/18 00:01:14;;;;;;;22.23;17.40;;;8.10;28.90;;;;;;5061088;28;20485;-68
2023/05/18 00:03:40;;;;;;;21.97;16.93;;;8.20;29.00;;;;;;5063959;28;20496;-68
2023/05/18 00:06:09;;;;;;;19.97;14.60;;;8.20;29.00;;;;;;5064819;28;20869;-68
2023/05/18 00:08:37;;;;;;;20.43;15.50;;;8.10;29.20;;;;;;5061639;28;20464;-69
2023/05/18 00:11:05;;;;;;;27.10;16.57;;;8.10;29.10;;;;;;5060667;28;20470;-68
2023/05/18 00:13:32;;;;;;;25.90;19.07;;;8.10;29.30;;;;;;5065223;28;20849;-68
2023/05/18 00:15:58;;;;;;;26.67;19.60;;;8.00;29.40;;;;;;5063238;28;20472;-68
2023/05/18 00:18:26;;;;;;;26.80;20.80;;;8.00;29.50;;;;;;5067408;28;20457;-68
2023/05/18 00:20:57;;;;;;;32.60;22.97;;;8.00;29.80;;;;;;5062856;28;20946;-68
2023/05/18 00:23:28;;;;;;;27.70;22.73;;;7.90;29.70;;;;;;5063576;28;21072;-68
2023/05/18 00:25:56;;;;;;;32.70;25.40;;;7.90;30.00;;;;;;5060888;28;20497;-68
2023/05/18 00:28:22;;;;;;;29.33;22.97;;;7.90;29.90;;;;;;5057133;28;21000;-68
2023/05/18 00:30:49;;;;;;;30.20;22.43;;;7.90;30.00;;;;;;5063707;28;21039;-68
2023/05/18 00:33:16;;;;;;;32.10;23.10;;;7.80;29.90;;;;;;5059519;28;20825;-68
2023/05/18 00:35:43;;;;;;;28.10;22.20;;;7.80;29.80;;;;;;5059431;28;20472;-68
2023/05/18 00:38:10;;;;;;;25.37;19.77;;;7.80;29.90;;;;;;5062207;28;20461;-68
2023/05/18 00:40:39;;;;;;;26.33;20.00;;;7.80;29.80;;;;;;5059383;28;20542;-68
2023/05/18 00:43:06;;;;;;;24.20;17.37;;;7.70;29.80;;;;;;5057267;28;20855;-68
2023/05/18 00:45:32;;;;;;;22.70;15.50;;;7.70;29.70;;;;;;5060735;28;20465;-68
2023/05/18 00:47:59;;;;;;;26.07;16.50;;;7.70;29.80;;;;;;5061964;28;20486;-68
2023/05/18 00:50:26;;;;;;;23.10;15.70;;;7.70;29.60;;;;;;5063716;28;20458;-68
2023/05/18 00:52:53;;;;;;;23.10;16.00;;;7.70;29.60;;;;;;5063164;28;20481;-68
2023/05/18 00:55:21;;;;;;;18.23;13.63;;;7.60;29.50;;;;;;5068558;28;20558;-68
2023/05/18 00:57:49;;;;;;;20.87;14.13;;;7.60;29.40;;;;;;5067586;28;20462;-68
2023/05/18 01:00:16;;;;;;;20.27;13.30;;;7.60;29.40;;;;;;5066143;28;20457;-68
2023/05/18 01:02:44;;;;;;;19.87;13.23;;;7.60;29.40;;;;;;5066711;28;20484;-68
2023/05/18 01:05:12;;;;;;;19.70;12.60;;;7.60;29.50;;;;;;5065841;28;20465;-68
2023/05/18 01:07:41;;;;;;;18.33;11.30;;;7.50;29.50;;;;;;5069928;28;20480;-68
2023/05/18 01:10:09;;;;;;;15.13;10.97;;;7.50;29.40;;;;;;5067092;28;20544;-68
2023/05/18 01:12:41;;;;;;;16.20;11.20;;;7.50;29.50;;;;;;5068757;28;20492;-68
2023/05/18 01:15:14;;;;;;;14.60;10.07;;;7.50;29.50;;;;;;5066438;28;20457;-68
2023/05/18 01:17:51;;;;;;;17.87;10.53;;;7.50;29.70;;;;;;5070494;28;20850;-68
2023/05/18 01:20:32;;;;;;;17.07;10.30;;;7.40;29.60;;;;;;5063645;28;20464;-68
2023/05/18 01:23:34;;;;;;;16.70;10.47;;;7.40;29.70;;;;;;5064322;28;20481;-71
2023/05/18 01:26:15;;;;;;;13.83;8.73;;;7.30;29.90;;;;;;5046357;28;21018;-68
2023/05/18 01:28:46;;;;;;;14.83;9.67;;;7.30;29.90;;;;;;5065842;28;20481;-68
2023/05/18 01:31:13;;;;;;;16.57;9.27;;;7.30;29.70;;;;;;5065455;28;20530;-68
2023/05/18 01:33:40;;;;;;;14.00;8.60;;;7.30;29.70;;;;;;5059301;28;20457;-68
2023/05/18 01:36:07;;;;;;;19.10;9.33;;;7.20;29.80;;;;;;5069225;28;20514;-68
2023/05/18 01:38:35;;;;;;;14.70;8.40;;;7.20;29.80;;;;;;5059577;28;20465;-68
2023/05/18 01:41:08;;;;;;;15.37;8.90;;;7.20;29.90;;;;;;5064689;28;20489;-69
2023/05/18 01:43:36;;;;;;;15.27;7.97;;;7.20;29.90;;;;;;5061352;28;20485;-68
2023/05/18 01:46:08;;;;;;;13.43;7.80;;;7.10;30.00;;;;;;5069832;28;20539;-68
2023/05/18 01:48:38;;;;;;;16.47;8.67;;;7.10;30.10;;;;;;5061645;28;20478;-68
2023/05/18 01:51:08;;;;;;;13.03;8.60;;;7.10;30.20;;;;;;5063956;28;20457;-68
2023/05/18 01:53:43;;;;;;;15.77;8.97;;;7.10;30.20;;;;;;5059928;28;20486;-68
2023/05/18 01:56:13;;;;;;;20.10;9.57;;;7.00;30.20;;;;;;5063750;28;20468;-68
2023/05/18 01:58:41;;;;;;;14.63;7.83;;;7.00;30.30;;;;;;5060683;28;20453;-68
2023/05/18 02:01:08;;;;;;;12.60;6.63;;;7.00;30.40;;;;;;5066775;28;20469;-68
2023/05/18 02:03:35;;;;;;;13.30;7.87;;;7.00;30.50;;;;;;5063005;28;21075;-67
2023/05/18 02:06:01;;;;;;;12.07;7.83;;;7.00;31.40;;;;;;5066336;28;20465;-68
2023/05/18 02:08:28;;;;;;;145.70;90.27;;;7.00;31.50;;;;;;5064291;28;20481;-67
2023/05/18 02:10:55;;;;;;;16.13;9.57;;;7.00;31.30;;;;;;5067150;28;20468;-68
2023/05/18 02:13:23;;;;;;;13.77;7.07;;;7.00;31.10;;;;;;5064764;28;20492;-69
2023/05/18 02:15:50;;;;;;;13.30;8.20;;;7.00;31.10;;;;;;5067427;28;20979;-68
2023/05/18 02:18:16;;;;;;;14.03;8.20;;;6.90;31.20;;;;;;5071543;28;20467;-68
2023/05/18 02:20:43;;;;;;;11.00;7.40;;;6.90;31.20;;;;;;5060900;28;21511;-68
2023/05/18 02:23:10;;;;;;;14.80;8.23;;;6.90;31.50;;;;;;5063185;28;20480;-68
2023/05/18 02:25:37;;;;;;;14.60;6.80;;;6.80;31.30;;;;;;5061929;28;20485;-68
2023/05/18 02:28:04;;;;;;;11.40;6.80;;;6.80;31.30;;;;;;5070212;28;20481;-68
2023/05/18 02:30:33;;;;;;;14.20;7.07;;;6.80;31.50;;;;;;5076339;22;20459;-71
2023/05/18 02:33:00;;;;;;;13.83;8.07;;;6.80;31.40;;;;;;5053562;28;20915;-72
2023/05/18 02:35:26;;;;;;;15.10;8.47;;;6.80;31.70;;;;;;5048301;28;20462;-71
2023/05/18 02:37:54;;;;;;;12.10;6.87;;;6.80;31.60;;;;;;5043843;28;20469;-71
2023/05/18 02:40:21;;;;;;;12.70;7.67;;;6.80;31.60;;;;;;5047594;28;20807;-71
2023/05/18 02:42:48;;;;;;;16.13;7.30;;;6.80;31.70;;;;;;5044237;28;20477;-71
2023/05/18 02:45:14;;;;;;;14.23;7.70;;;6.80;31.50;;;;;;5046536;28;20457;-70
2023/05/18 02:47:43;;;;;;;11.33;7.37;;;6.80;31.40;;;;;;5059229;28;20478;-70
2023/05/18 02:50:10;;;;;;;12.83;6.57;;;6.80;31.60;;;;;;5043102;28;20555;-70
2023/05/18 02:52:37;;;;;;;15.80;7.73;;;6.80;31.50;;;;;;5049575;28;20838;-70
2023/05/18 02:55:05;;;;;;;16.00;7.73;;;6.70;31.50;;;;;;5049131;28;20463;-70
2023/05/18 02:57:32;;;;;;;16.70;7.87;;;6.70;31.70;;;;;;5039596;28;20462;-70
2023/05/18 02:59:59;;;;;;;12.07;7.47;;;6.70;31.80;;;;;;5051868;28;21305;-71
2023/05/18 03:02:26;;;;;;;15.47;7.20;;;6.70;32.00;;;;;;5045825;28;21231;-72
2023/05/18 03:04:56;;;;;;;12.60;7.60;;;6.60;31.90;;;;;;5045282;28;20535;-71
2023/05/18 03:07:22;;;;;;;13.20;6.93;;;6.60;32.10;;;;;;5046425;28;20473;-71
2023/05/18 03:09:49;;;;;;;13.33;7.20;;;6.60;32.10;;;;;;5048507;28;20468;-70
2023/05/18 03:12:16;;;;;;;13.50;7.20;;;6.60;32.20;;;;;;5045867;28;20513;-70
2023/05/18 03:14:42;;;;;;;12.63;7.30;;;6.50;32.60;;;;;;5046757;28;20473;-70
2023/05/18 03:17:09;;;;;;;14.67;7.17;;;6.50;32.80;;;;;;5044377;28;20470;-70
2023/05/18 03:19:36;;;;;;;16.03;7.37;;;6.50;33.40;;;;;;5055849;28;20457;-71
2023/05/18 03:22:04;;;;;;;11.60;6.63;;;6.50;32.70;;;;;;5046874;28;20923;-70
2023/05/18 03:24:38;;;;;;;16.00;7.70;;;6.50;32.90;;;;;;5053411;28;20966;-72
2023/05/18 03:27:06;;;;;;;15.13;7.80;;;6.50;32.90;;;;;;5045896;28;20528;-70
2023/05/18 03:29:33;;;;;;;10.50;6.63;;;6.50;32.90;;;;;;5049106;28;20482;-70
2023/05/18 03:32:00;;;;;;;10.47;6.33;;;6.50;32.80;;;;;;5046357;28;20529;-71
2023/05/18 03:34:26;;;;;;;12.93;6.53;;;6.40;32.80;;;;;;5046486;28;20557;-70
2023/05/18 03:36:53;;;;;;;9.40;6.23;;;6.40;32.80;;;;;;5051001;28;20806;-72
2023/05/18 03:39:21;;;;;;;14.43;6.47;;;6.40;32.70;;;;;;5043923;28;20567;-71
2023/05/18 03:41:48;;;;;;;14.30;7.03;;;6.40;32.90;;;;;;5048911;28;20492;-71
2023/05/18 03:44:15;;;;;;;15.53;7.67;;;6.40;32.90;;;;;;5044790;28;20470;-71
2023/05/18 03:46:41;;;;;;;16.37;7.37;;;6.40;32.80;;;;;;5046072;28;20533;-70
2023/05/18 03:49:08;;;;;;;12.17;6.93;;;6.40;32.90;;;;;;5042208;28;20488;-70
2023/05/18 03:51:35;;;;;;;14.60;6.87;;;6.40;33.00;;;;;;5049316;28;20998;-71
2023/05/18 03:54:02;;;;;;;15.63;6.70;;;6.40;32.80;;;;;;5042360;28;20473;-71
2023/05/18 03:56:30;;;;;;;11.60;6.93;;;6.40;32.80;;;;;;5044342;28;20470;-72
2023/05/18 03:58:57;;;;;;;12.00;6.17;;;6.50;32.90;;;;;;5047809;28;20458;-72
2023/05/18 04:01:24;;;;;;;13.60;6.90;;;6.50;32.80;;;;;;5042354;28;20579;-71
2023/05/18 04:03:55;;;;;;;10.13;5.90;;;6.50;32.80;;;;;;5045916;28;20466;-72
2023/05/18 04:06:25;;;;;;;14.10;6.10;;;6.50;32.60;;;;;;5040229;28;20458;-72
2023/05/18 04:08:51;;;;;;;15.73;6.63;;;6.50;32.60;;;;;;5045302;28;20492;-72
2023/05/18 04:11:18;;;;;;;11.63;6.20;;;6.60;32.50;;;;;;5043200;28;20961;-72
2023/05/18 04:13:46;;;;;;;9.83;6.20;;;6.60;32.40;;;;;;5043714;28;20974;-72
2023/05/18 04:16:13;;;;;;;11.80;6.00;;;6.60;32.40;;;;;;5043281;28;20492;-72
2023/05/18 04:18:40;;;;;;;13.00;6.40;;;6.70;32.50;;;;;;5042852;28;20462;-72
2023/05/18 04:21:07;;;;;;;15.20;6.63;;;6.70;32.30;;;;;;5044008;28;20457;-73
2023/05/18 04:23:37;;;;;;;9.93;5.83;;;6.80;32.20;;;;;;5042191;28;20489;-70
2023/05/18 04:26:04;;;;;;;9.27;5.70;;;6.90;32.10;;;;;;5036403;28;20462;-72
2023/05/18 04:28:31;;;;;;;12.60;5.93;;;6.90;31.90;;;;;;5046054;28;20485;-72
2023/05/18 04:31:00;;;;;;;11.30;6.87;;;7.00;31.50;;;;;;5045002;28;20470;-71
2023/05/18 04:33:28;;;;;;;12.20;6.50;;;7.10;31.50;;;;;;5049564;28;20586;-73
2023/05/18 04:35:54;;;;;;;9.67;6.20;;;7.10;31.40;;;;;;5054051;28;20474;-71
2023/05/18 04:38:22;;;;;;;13.13;6.30;;;7.20;31.40;;;;;;5047643;28;20450;-72
2023/05/18 04:40:49;;;;;;;10.90;5.47;;;7.20;31.20;;;;;;5049846;28;20465;-71
2023/05/18 04:43:16;;;;;;;9.77;5.87;;;7.30;31.10;;;;;;5048334;28;20557;-71
2023/05/18 04:45:45;;;;;;;15.33;6.23;;;7.50;30.80;;;;;;5051858;28;20477;-73
2023/05/18 04:48:16;;;;;;;10.80;5.37;;;7.60;30.60;;;;;;5052748;28;20531;-72
2023/05/18 04:50:44;;;;;;;17.27;6.60;;;7.70;30.50;;;;;;5049712;28;20494;-71
2023/05/18 04:53:11;;;;;;;10.43;5.20;;;8.40;30.50;;;;;;5053003;28;20520;-71
2023/05/18 04:55:38;;;;;;;11.80;4.67;;;9.90;27.10;;;;;;5050276;28;20515;-71
2023/05/18 04:58:05;;;;;;;9.97;5.47;;;11.70;22.00;;;;;;5053750;28;20477;-71
2023/05/18 05:00:31;;;;;;;9.57;4.30;;;13.20;18.10;;;;;;5050805;28;20461;-73
2023/05/18 05:02:59;;;;;;;10.60;4.90;;;14.60;14.70;;;;;;5056706;28;21178;-72
2023/05/18 05:05:28;;;;;;;7.57;4.07;;;15.80;11.90;;;;;;5051788;28;20462;-72
2023/05/18 05:07:56;;;;;;;11.67;3.27;;;16.90;9.00;;;;;;5054558;28;20543;-71
2023/05/18 05:10:23;;;;;;;9.20;3.93;;;17.90;6.60;;;;;;5048826;28;20465;-72
2023/05/18 05:12:50;;;;;;;7.10;3.30;;;18.80;4.90;;;;;;5050777;28;20490;-72
2023/05/18 05:15:17;;;;;;;8.83;3.10;;;19.60;3.00;;;;;;5052444;28;20476;-72
2023/05/18 05:17:44;;;;;;;11.37;3.37;;;20.40;1.60;;;;;;5053981;28;20795;-72
2023/05/18 05:20:11;;;;;;;13.23;4.00;;;21.30;1.00;;;;;;5052272;28;20469;-72
2023/05/18 05:22:39;;;;;;;9.23;3.00;;;22.10;1.00;;;;;;5050135;28;20493;-72
2023/05/18 05:25:07;;;;;;;9.00;3.83;;;22.80;1.00;;;;;;5055598;28;20948;-72
2023/05/18 05:27:33;;;;;;;8.50;3.20;;;23.40;1.00;;;;;;5050507;28;20468;-72
2023/05/18 05:30:01;;;;;;;7.13;3.43;;;24.00;1.00;;;;;;5048559;28;20477;-72
2023/05/18 05:32:27;;;;;;;7.40;2.97;;;24.70;1.00;;;;;;5050689;28;20476;-72
2023/05/18 05:34:54;;;;;;;7.40;3.43;;;25.30;1.00;;;;;;5050887;28;20458;-72
2023/05/18 05:37:21;;;;;;;8.33;3.30;;;25.90;1.00;;;;;;5050573;28;20473;-72
2023/05/18 05:39:49;;;;;;;8.60;3.17;;;26.50;1.00;;;;;;5056581;28;20458;-72
2023/05/18 05:42:16;;;;;;;7.63;3.70;;;26.90;1.00;;;;;;5051236;28;20489;-72
2023/05/18 05:44:43;;;;;;;7.97;3.83;;;27.60;1.00;;;;;;5048287;28;20472;-73
2023/05/18 05:47:09;;;;;;;10.83;4.30;;;28.20;1.00;;;;;;5053276;28;21127;-73
2023/05/18 05:49:36;;;;;;;9.53;3.57;;;28.50;1.00;;;;;;5050590;28;20478;-73
2023/05/18 05:52:03;;;;;;;9.73;4.13;;;28.70;1.00;;;;;;5049978;28;20481;-73
2023/05/18 05:54:30;;;;;;;8.60;3.63;;;29.10;1.00;;;;;;5035554;28;20470;-73
2023/05/18 05:56:58;;;;;;;9.40;3.67;;;29.20;1.00;;;;;;5055759;28;20466;-73
2023/05/18 05:59:25;;;;;;;6.53;3.17;;;29.30;1.00;;;;;;5045770;28;20472;-73
2023/05/18 06:01:51;;;;;;;9.37;3.70;;;29.60;1.00;;;;;;5047069;28;20478;-73
2023/05/18 06:04:19;;;;;;;6.40;3.50;;;29.90;1.00;;;;;;5047457;28;20494;-73
2023/05/18 06:06:46;;;;;;;6.30;3.07;;;30.40;1.00;;;;;;5049960;28;20481;-73
2023/05/18 06:09:13;;;;;;;7.97;3.33;;;31.00;1.00;;;;;;5045974;28;20478;-73
2023/05/18 06:11:40;;;;;;;9.20;4.63;;;31.50;1.00;;;;;;5046727;28;20486;-74
2023/05/18 06:14:08;;;;;;;12.17;3.73;;;31.80;1.00;;;;;;5045520;28;20964;-74
2023/05/18 06:16:35;;;;;;;9.63;4.30;;;31.90;1.00;;;;;;5054268;28;20462;-74
2023/05/18 06:19:02;;;;;;;7.87;3.57;;;31.90;1.00;;;;;;5051423;28;20817;-73
2023/05/18 06:21:29;;;;;;;7.13;3.03;;;32.20;1.00;;;;;;5049353;28;21058;-74
2023/05/18 06:23:56;;;;;;;7.67;4.20;;;32.80;1.00;;;;;;5048967;28;21049;-74
2023/05/18 06:26:23;;;;;;;8.83;3.57;;;33.50;1.00;;;;;;5047173;28;21054;-74
2023/05/18 06:28:49;;;;;;;6.10;3.13;;;34.10;1.00;;;;;;5047629;28;20480;-74
2023/05/18 06:31:18;;;;;;;7.90;3.60;;;34.00;1.00;;;;;;5049834;28;20504;-74
2023/05/18 06:33:45;;;;;;;8.13;3.47;;;33.50;1.00;;;;;;5051174;28;20464;-73
2023/05/18 06:36:12;;;;;;;9.10;3.63;;;33.90;1.00;;;;;;5047910;28;20498;-74
2023/05/18 06:38:39;;;;;;;7.10;3.33;;;34.80;1.00;;;;;;5049144;28;20480;-74
2023/05/18 06:41:05;;;;;;;11.00;3.77;;;35.30;1.00;;;;;;5044225;28;20841;-74
2023/05/18 06:43:32;;;;;;;6.80;3.43;;;35.10;1.00;;;;;;5044178;28;20490;-74
2023/05/18 06:45:59;;;;;;;8.33;3.37;;;35.10;1.00;;;;;;5044329;28;20469;-72
2023/05/18 06:48:28;;;;;;;7.60;3.10;;;34.90;1.00;;;;;;5046319;28;20481;-68
2023/05/18 06:50:55;;;;;;;7.10;3.40;;;35.00;1.00;;;;;;5053150;28;20968;-68
2023/05/18 06:53:22;;;;;;;8.27;4.07;;;35.00;1.00;;;;;;5044127;28;20508;-71
2023/05/18 06:55:48;;;;;;;10.83;3.77;;;35.30;1.00;;;;;;5035054;28;20506;-71
2023/05/18 06:58:15;;;;;;;8.37;3.70;;;35.70;1.00;;;;;;5037397;28;20492;-70
2023/05/18 07:00:42;;;;;;;8.30;3.97;;;36.30;1.00;;;;;;5030334;28;20842;-71
2023/05/18 07:03:09;;;;;;;8.30;3.33;;;35.90;1.00;;;;;;5040925;28;20489;-70
2023/05/18 07:05:37;;;;;;;7.60;3.80;;;35.90;1.00;;;;;;5043100;28;20503;-71
2023/05/18 07:08:05;;;;;;;6.40;3.50;;;35.40;1.00;;;;;;5046588;28;20475;-72
2023/05/18 07:10:34;;;;;;;5.80;2.97;;;35.90;1.00;;;;;;5043707;28;21206;-70
2023/05/18 07:13:01;;;;;;;7.33;3.80;;;36.70;1.00;;;;;;5047493;28;20513;-69
2023/05/18 07:15:27;;;;;;;5.70;3.53;;;36.10;1.00;;;;;;5039096;28;20931;-71
2023/05/18 07:17:54;;;;;;;8.03;3.63;;;35.60;1.00;;;;;;5044509;28;20473;-69
2023/05/18 07:20:21;;;;;;;8.60;3.60;;;35.30;1.00;;;;;;5041353;28;20508;-72
2023/05/18 07:22:49;;;;;;;7.03;3.03;;;36.00;1.00;;;;;;5042713;28;20494;-70
2023/05/18 07:25:16;;;;;;;8.53;3.40;;;36.60;1.00;;;;;;5045000;28;20473;-70
2023/05/18 07:27:43;;;;;;;7.30;3.07;;;37.40;1.00;;;;;;5042993;28;20957;-69
2023/05/18 07:30:10;;;;;;;11.50;4.23;;;37.90;1.00;;;;;;5045150;28;20481;-68
2023/05/18 07:32:37;;;;;;;6.40;3.10;;;38.00;1.00;;;;;;5048241;28;20878;-68
2023/05/18 07:35:04;;;;;;;8.40;3.20;;;38.00;1.00;;;;;;5037655;28;20462;-68
2023/05/18 07:37:31;;;;;;;6.40;3.27;;;38.70;1.00;;;;;;5039862;28;20798;-72
2023/05/18 07:39:59;;;;;;;5.93;3.23;;;39.30;1.00;;;;;;5035677;28;20454;-66
2023/05/18 07:42:26;;;;;;;6.43;2.93;;;39.20;1.00;;;;;;5045110;28;20539;-70
2023/05/18 07:44:53;;;;;;;7.03;3.13;;;39.60;1.00;;;;;;5040831;28;20470;-71
2023/05/18 07:47:20;;;;;;;11.67;3.67;;;39.70;1.00;;;;;;5040276;28;20496;-71
2023/05/18 07:49:47;;;;;;;6.87;3.37;;;39.70;1.00;;;;;;5032065;28;21076;-71
2023/05/18 07:52:14;;;;;;;8.53;3.43;;;36.80;1.00;;;;;;5036064;28;21068;-72
2023/05/18 07:54:41;;;;;;;7.83;3.30;;;35.10;1.00;;;;;;5037930;28;20474;-72
2023/05/18 07:57:09;;;;;;;9.43;3.23;;;34.80;1.00;;;;;;5039705;28;20470;-72
2023/05/18 07:59:35;;;;;;;8.40;3.23;;;35.40;1.00;;;;;;5040430;28;20857;-72
2023/05/18 08:02:02;;;;;;;8.37;3.53;;;35.00;1.00;;;;;;5037735;28;20489;-73
2023/05/18 08:04:29;;;;;;;8.33;4.10;;;35.20;1.00;;;;;;5040368;28;20479;-71
2023/05/18 08:06:59;;;;;;;11.40;3.00;;;35.30;1.00;;;;;;5048861;28;20465;-72
2023/05/18 08:09:26;;;;;;;6.10;2.93;;;35.80;1.00;;;;;;5046907;28;20486;-72
2023/05/18 08:11:53;;;;;;;7.67;3.33;;;37.00;1.00;;;;;;5052827;28;20532;-72
2023/05/18 08:14:21;;;;;;;11.20;3.73;;;38.00;1.00;;;;;;5041049;28;20842;-72
2023/05/18 08:16:48;;;;;;;7.80;3.13;;;35.80;1.00;;;;;;5046877;28;20477;-72
2023/05/18 08:19:15;;;;;;;8.23;3.20;;;34.60;1.00;;;;;;5045801;28;20483;-72
2023/05/18 08:21:41;;;;;;;7.77;3.60;;;34.50;1.00;;;;;;5045377;28;20478;-72
2023/05/18 08:24:09;;;;;;;8.63;4.27;;;34.90;1.00;;;;;;5041879;28;20463;-72
2023/05/18 08:26:36;;;;;;;10.47;3.60;;;34.70;1.00;;;;;;5041609;28;21011;-72
2023/05/18 08:29:08;;;;;;;6.60;3.33;;;34.90;1.00;;;;;;5032974;28;20937;-72
2023/05/18 08:31:36;;;;;;;6.13;3.07;;;34.60;1.00;;;;;;5033015;28;20651;-72
2023/05/18 08:34:04;;;;;;;8.77;3.70;;;33.90;1.00;;;;;;5030530;28;20501;-71
2023/05/18 08:36:32;;;;;;;6.60;3.00;;;33.60;1.00;;;;;;5032770;28;20470;-69
2023/05/18 08:38:58;;;;;;;7.03;3.37;;;34.00;1.00;;;;;;5034805;28;20843;-68
2023/05/18 08:41:29;;;;;;;6.90;3.30;;;34.20;1.00;;;;;;5039208;28;20466;-71
2023/05/18 08:44:01;;;;;;;6.57;3.13;;;34.40;1.00;;;;;;5037349;28;20470;-71
2023/05/18 08:46:33;;;;;;;9.83;3.40;;;35.70;1.00;;;;;;5038705;28;20467;-69
2023/05/18 08:49:04;;;;;;;7.50;4.00;;;36.10;1.00;;;;;;5044793;28;20486;-70
2023/05/18 08:51:34;;;;;;;8.17;3.30;;;35.50;1.00;;;;;;5040440;28;20488;-70
2023/05/18 08:54:04;;;;;;;8.90;3.53;;;36.10;1.00;;;;;;5038565;28;20485;-69
2023/05/18 08:56:32;;;;;;;8.40;4.23;;;35.30;1.00;;;;;;5042970;28;20476;-70
2023/05/18 08:58:59;;;;;;;7.93;3.00;;;35.50;1.00;;;;;;5039092;28;20992;-71
2023/05/18 09:01:28;;;;;;;9.00;3.10;;;35.40;1.00;;;;;;5037898;28;20478;-70
2023/05/18 09:03:56;;;;;;;6.67;3.77;;;34.40;1.00;;;;;;5044031;28;20537;-69
2023/05/18 09:06:25;;;;;;;8.60;3.73;;;34.20;1.00;;;;;;5047509;28;20454;-68
2023/05/18 09:08:53;;;;;;;7.50;3.70;;;33.20;1.00;;;;;;5041567;28;20851;-67
2023/05/18 09:11:21;;;;;;;8.90;3.70;;;33.60;1.00;;;;;;5039233;28;20458;-68
2023/05/18 09:13:49;;;;;;;6.40;3.20;;;33.50;1.00;;;;;;5045168;28;20473;-69
2023/05/18 09:16:16;;;;;;;8.30;3.70;;;33.60;1.00;;;;;;5046557;28;20465;-70
2023/05/18 09:18:42;;;;;;;7.60;3.27;;;32.40;1.00;;;;;;5047116;28;20462;-71
2023/05/18 09:21:09;;;;;;;7.90;4.00;;;31.10;1.00;;;;;;5048968;28;20470;-69
2023/05/18 09:23:38;;;;;;;8.90;3.90;;;29.40;1.00;;;;;;5047542;28;20489;-70
2023/05/18 09:26:07;;;;;;;10.50;4.00;;;28.20;1.00;;;;;;5044128;28;20489;-70
2023/05/18 09:28:37;;;;;;;10.90;4.07;;;27.60;1.00;;;;;;5050639;28;20461;-71
2023/05/18 09:31:04;;;;;;;7.90;4.17;;;27.80;1.00;;;;;;5052666;28;20984;-71
2023/05/18 09:33:34;;;;;;;6.20;3.50;;;29.20;1.00;;;;;;5049926;28;21309;-71
2023/05/18 09:36:00;;;;;;;9.10;4.20;;;30.20;1.00;;;;;;5037566;28;20549;-71
2023/05/18 09:38:28;;;;;;;11.70;4.67;;;30.80;1.00;;;;;;5043467;28;20466;-71
2023/05/18 09:40:56;;;;;;;8.30;3.77;;;30.80;1.00;;;;;;5048529;28;20529;-71
2023/05/18 09:43:23;;;;;;;8.83;4.30;;;30.90;1.00;;;;;;5046224;28;20478;-73
2023/05/18 09:45:50;;;;;;;8.23;3.67;;;32.10;1.00;;;;;;5047967;28;20792;-71
2023/05/18 09:48:17;;;;;;;10.10;3.77;;;31.20;1.00;;;;;;5048421;28;20462;-68
2023/05/18 09:50:45;;;;;;;9.13;3.30;;;29.90;1.00;;;;;;5051376;28;20482;-69
2023/05/18 09:53:13;;;;;;;8.60;3.80;;;29.00;1.00;;;;;;5046301;28;20496;-69
2023/05/18 09:55:46;;;;;;;8.80;4.40;;;28.10;1.00;;;;;;5046538;28;20466;-68
2023/05/18 09:58:14;;;;;;;8.20;3.93;;;26.60;1.00;;;;;;5048567;28;20467;-71
2023/05/18 10:00:42;;;;;;;10.33;4.10;;;25.10;1.00;;;;;;5048323;28;20470;-71
2023/05/18 10:03:19;;;;;;;7.67;3.23;;;24.20;1.00;;;;;;5045942;28;20485;-70
2023/05/18 10:05:46;;;;;;;8.33;3.20;;;23.60;1.00;;;;;;5044712;28;20477;-69
2023/05/18 10:08:14;;;;;;;8.70;3.13;;;22.80;1.00;;;;;;5043150;28;20466;-69
2023/05/18 10:10:44;;;;;;;8.87;4.00;;;22.40;1.00;;;;;;5043104;28;20486;-70
2023/05/18 10:13:17;;;;;;;8.43;3.70;;;22.20;1.00;;;;;;5041550;28;20498;-68
2023/05/18 10:15:49;;;;;;;9.00;3.27;;;21.70;1.00;;;;;;5043696;28;20520;-70
2023/05/18 10:18:22;;;;;;;11.23;3.83;;;21.40;1.00;;;;;;5046243;28;20528;-69
2023/05/18 10:20:50;;;;;;;6.90;3.03;;;20.80;1.00;;;;;;5043607;28;20565;-69
2023/05/18 10:23:18;;;;;;;7.67;3.40;;;20.40;1.00;;;;;;5042999;28;20493;-69
2023/05/18 10:25:47;;;;;;;14.03;3.60;;;20.00;1.00;;;;;;5043707;28;20573;-72
2023/05/18 10:28:23;;;;;;;7.00;3.53;;;19.70;1.00;;;;;;5045525;28;20478;-69
2023/05/18 10:30:52;;;;;;;8.50;3.00;;;19.50;1.00;;;;;;5035167;28;20473;-66
2023/05/18 10:33:20;;;;;;;9.77;3.37;;;19.20;1.00;;;;;;5046177;28;21020;-69
2023/05/18 10:35:48;;;;;;;8.30;3.30;;;19.10;1.00;;;;;;5046101;28;20502;-67
2023/05/18 10:38:19;;;;;;;9.20;3.20;;;18.80;1.00;;;;;;5045962;28;20504;-67
2023/05/18 10:40:48;;;;;;;10.63;4.33;;;18.80;1.10;;;;;;5042065;28;21044;-68
2023/05/18 10:43:19;;;;;;;9.70;3.27;;;18.70;1.10;;;;;;5050156;28;20509;-66
2023/05/18 10:45:48;;;;;;;9.97;3.40;;;18.70;1.00;;;;;;5046403;28;20462;-67
2023/05/18 10:48:16;;;;;;;10.40;3.40;;;18.80;1.00;;;;;;5045581;28;20565;-66
2023/05/18 10:50:43;;;;;;;6.00;2.67;;;18.90;1.00;;;;;;5046709;28;20517;-67
2023/05/18 10:53:11;;;;;;;7.67;2.93;;;18.80;1.00;;;;;;5042554;28;20481;-66
2023/05/18 10:55:37;;;;;;;7.77;3.00;;;18.50;1.00;;;;;;5040795;28;20458;-70
2023/05/18 10:58:09;;;;;;;8.87;3.30;;;18.30;1.00;;;;;;5030544;28;20467;-70
2023/05/18 11:00:39;;;;;;;6.90;3.23;;;17.90;1.10;;;;;;5044684;28;20457;-71
2023/05/18 11:03:11;;;;;;;9.47;3.50;;;17.80;1.50;;;;;;5046345;28;21027;-69
2023/05/18 11:05:39;;;;;;;6.43;2.90;;;17.70;1.90;;;;;;5046305;28;20470;-67
2023/05/18 11:08:06;;;;;;;8.70;3.27;;;17.70;2.20;;;;;;5042911;28;20474;-70
2023/05/18 11:10:35;;;;;;;7.70;2.73;;;17.70;2.50;;;;;;5047528;28;20488;-69
2023/05/18 11:13:02;;;;;;;7.70;2.93;;;18.00;3.30;;;;;;5046101;28;20510;-68
2023/05/18 11:16:04;;;;;;;9.87;3.60;;;18.10;1.80;;;;;;5046107;28;20470;-66
2023/05/18 11:18:36;;;;;;;11.63;3.40;;;18.10;2.50;;;;;;5045946;28;20465;-68
2023/05/18 11:21:02;;;;;;;10.93;3.27;;;18.10;2.30;;;;;;5047969;28;20493;-67
2023/05/18 11:23:31;;;;;;;9.83;3.33;;;18.10;2.50;;;;;;5047630;28;20481;-68
2023/05/18 11:26:01;;;;;;;12.90;3.13;;;18.00;1.30;;;;;;5047566;28;20469;-68
2023/05/18 11:28:29;;;;;;;12.03;4.17;;;17.90;2.10;;;;;;5044848;28;20462;-68
2023/05/18 11:30:55;;;;;;;9.90;3.10;;;17.90;2.10;;;;;;5049888;28;20557;-68
2023/05/18 11:33:29;;;;;;;8.33;3.03;;;17.80;3.10;;;;;;5047007;28;20504;-67
2023/05/18 11:36:01;;;;;;;7.97;3.00;;;17.80;3.20;;;;;;5045510;28;21245;-67
2023/05/18 11:38:47;;;;;;;6.80;2.90;;;17.80;2.80;;;;;;5045123;28;20462;-69
2023/05/18 11:41:34;;;;;;;12.47;3.40;;;17.80;2.60;;;;;;5083683;22;20571;-68
2023/05/18 11:44:16;;;;;;;7.80;3.30;;;17.90;3.10;;;;;;5066558;28;20552;-68
2023/05/18 11:46:53;;;;;;;7.53;3.53;;;17.90;3.30;;;;;;5064913;28;20465;-70
2023/05/18 11:49:24;;;;;;;7.90;2.53;;;17.90;3.50;;;;;;5064742;28;20469;-68
2023/05/18 11:52:06;;;;;;;6.33;2.83;;;17.70;2.80;;;;;;5067396;28;20520;-68
2023/05/18 11:54:39;;;;;;;10.87;3.20;;;17.60;3.00;;;;;;5065428;28;20492;-68
2023/05/18 11:57:06;;;;;;;7.17;3.13;;;17.50;3.00;;;;;;5069052;28;20461;-68
2023/05/18 11:59:37;;;;;;;9.23;2.50;;;17.60;3.70;;;;;;5070269;28;20469;-68
2023/05/18 12:02:04;;;;;;;12.30;2.80;;;17.60;3.30;;;;;;5066825;28;21012;-68
2023/05/18 12:04:33;;;;;;;10.07;3.00;;;17.50;3.00;;;;;;5065900;28;20552;-68
2023/05/18 12:07:04;;;;;;;8.17;3.30;;;17.20;2.90;;;;;;5068306;28;20480;-68
2023/05/18 12:09:31;;;;;;;8.17;3.50;;;17.00;3.20;;;;;;5070553;28;20465;-68
2023/05/18 12:11:58;;;;;;;7.63;2.97;;;17.00;4.00;;;;;;5067896;28;20485;-68
2023/05/18 12:14:26;;;;;;;8.37;3.27;;;16.90;3.70;;;;;;5072442;28;20560;-68
2023/05/18 12:16:54;;;;;;;7.23;3.47;;;16.80;3.60;;;;;;5067556;28;20827;-68
2023/05/18 12:19:22;;;;;;;9.87;3.47;;;16.70;3.80;;;;;;5068206;28;21013;-68
2023/05/18 12:21:50;;;;;;;8.27;2.90;;;16.50;4.70;;;;;;5069971;28;20562;-68
2023/05/18 12:24:17;;;;;;;13.80;3.67;;;16.40;4.60;;;;;;5066415;28;20458;-68
2023/05/18 12:26:45;;;;;;;9.20;3.10;;;16.50;4.90;;;;;;5071259;28;20487;-68
2023/05/18 12:29:18;;;;;;;7.80;3.10;;;16.60;4.90;;;;;;5068875;28;20986;-68
2023/05/18 12:31:46;;;;;;;10.33;3.07;;;16.50;4.80;;;;;;5065590;28;20480;-68
2023/05/18 12:34:12;;;;;;;7.67;3.07;;;16.60;5.50;;;;;;5068880;28;20800;-68
2023/05/18 12:36:43;;;;;;;6.77;3.03;;;16.60;5.40;;;;;;5064907;28;20453;-68
2023/05/18 12:39:15;;;;;;;6.13;2.67;;;16.50;5.50;;;;;;5068334;28;20461;-68
2023/05/18 12:41:42;;;;;;;7.30;2.80;;;16.40;5.40;;;;;;5067221;28;20567;-68
2023/05/18 12:44:09;;;;;;;9.40;3.47;;;16.30;5.00;;;;;;5062505;28;20462;-68
2023/05/18 12:46:35;;;;;;;7.90;3.10;;;16.20;5.20;;;;;;5071026;28;20469;-68
2023/05/18 12:49:04;;;;;;;7.90;2.50;;;16.10;5.40;;;;;;5067199;28;20457;-68
2023/05/18 12:51:35;;;;;;;7.30;3.00;;;16.20;5.50;;;;;;5069510;28;20468;-68
2023/05/18 12:54:03;;;;;;;8.23;3.20;;;16.20;6.30;;;;;;5070273;28;20469;-68
2023/05/18 12:56:58;;;;;;;5.80;2.70;;;16.10;6.50;;;;;;5072882;28;20518;-68